sensor_id;sensor_type;location;lat;lon;timestamp;temperature;humidity
20866;DHT22;10593;48.398;10.698;2023-02-22T00:00:22;10.50;45.10
20866;DHT22;10593;48.398;10.698;2023-02-22T00:02:54;10.40;45.00
20866;DHT22;10593;48.398;10.698;2023-02-22T00:05:26;10.40;45.10
20866;DHT22;10593;48.398;10.698;2023-02-22T00:07:53;10.40;45.10
20866;DHT22;10593;48.398;10.698;2023-02-22T00:10:23;10.40;45.20
20866;DHT22;10593;48.398;10.698;2023-02-22T00:12:50;10.40;45.20
20866;DHT22;10593;48.398;10.698;2023-02-22T00:20:28;10.30;45.00
20866;DHT22;10593;48.398;10.698;2023-02-22T00:22:54;10.30;45.00
20866;DHT22;10593;48.398;10.698;2023-02-22T00:25:22;10.30;45.00
20866;DHT22;10593;48.398;10.698;2023-02-22T00:27:50;10.30;45.00
20866;DHT22;10593;48.398;10.698;2023-02-22T00:30:22;10.20;44.80
20866;DHT22;10593;48.398;10.698;2023-02-22T00:32:52;10.20;44.80
20866;DHT22;10593;48.398;10.698;2023-02-22T00:35:21;10.20;44.60
20866;DHT22;10593;48.398;10.698;2023-02-22T00:37:49;10.20;44.60
20866;DHT22;10593;48.398;10.698;2023-02-22T00:40:22;10.10;44.50
20866;DHT22;10593;48.398;10.698;2023-02-22T00:42:50;10.10;44.50
20866;DHT22;10593;48.398;10.698;2023-02-22T00:45:19;10.10;44.50
20866;DHT22;10593;48.398;10.698;2023-02-22T00:47:47;10.10;44.50
20866;DHT22;10593;48.398;10.698;2023-02-22T00:50:14;10.00;44.40
20866;DHT22;10593;48.398;10.698;2023-02-22T00:52:43;10.10;44.60
20866;DHT22;10593;48.398;10.698;2023-02-22T00:55:15;10.00;44.50
20866;DHT22;10593;48.398;10.698;2023-02-22T00:57:43;10.00;44.50
20866;DHT22;10593;48.398;10.698;2023-02-22T01:00:16;10.00;44.60
20866;DHT22;10593;48.398;10.698;2023-02-22T01:02:46;10.00;44.60
20866;DHT22;10593;48.398;10.698;2023-02-22T01:05:20;9.90;45.50
20866;DHT22;10593;48.398;10.698;2023-02-22T01:07:48;10.00;44.60
20866;DHT22;10593;48.398;10.698;2023-02-22T01:10:16;9.90;45.50
20866;DHT22;10593;48.398;10.698;2023-02-22T01:12:45;9.90;45.50
20866;DHT22;10593;48.398;10.698;2023-02-22T01:15:12;9.90;45.50
20866;DHT22;10593;48.398;10.698;2023-02-22T01:17:39;9.90;45.60
20866;DHT22;10593;48.398;10.698;2023-02-22T01:20:09;9.90;45.50
20866;DHT22;10593;48.398;10.698;2023-02-22T01:22:41;9.80;45.40
20866;DHT22;10593;48.398;10.698;2023-02-22T01:25:09;9.80;45.50
20866;DHT22;10593;48.398;10.698;2023-02-22T01:27:37;9.80;45.60
20866;DHT22;10593;48.398;10.698;2023-02-22T01:30:05;9.80;45.60
20866;DHT22;10593;48.398;10.698;2023-02-22T01:32:34;9.80;45.70
20866;DHT22;10593;48.398;10.698;2023-02-22T01:35:00;9.80;45.70
20866;DHT22;10593;48.398;10.698;2023-02-22T01:37:29;9.80;45.70
20866;DHT22;10593;48.398;10.698;2023-02-22T01:39:56;9.70;45.70
20866;DHT22;10593;48.398;10.698;2023-02-22T01:42:22;9.70;45.70
20866;DHT22;10593;48.398;10.698;2023-02-22T01:48:42;9.70;45.70
20866;DHT22;10593;48.398;10.698;2023-02-22T01:51:29;9.60;45.60
20866;DHT22;10593;48.398;10.698;2023-02-22T01:57:02;9.60;45.50
20866;DHT22;10593;48.398;10.698;2023-02-22T01:59:35;9.60;45.50
20866;DHT22;10593;48.398;10.698;2023-02-22T02:02:04;9.60;45.50
20866;DHT22;10593;48.398;10.698;2023-02-22T02:04:31;9.60;45.50
20866;DHT22;10593;48.398;10.698;2023-02-22T02:07:01;9.50;45.40
20866;DHT22;10593;48.398;10.698;2023-02-22T02:12:22;9.50;45.50
20866;DHT22;10593;48.398;10.698;2023-02-22T02:14:49;9.50;45.60
20866;DHT22;10593;48.398;10.698;2023-02-22T02:17:18;9.50;45.60
20866;DHT22;10593;48.398;10.698;2023-02-22T02:22:39;9.50;45.60
20866;DHT22;10593;48.398;10.698;2023-02-22T02:35:05;9.30;45.60
20866;DHT22;10593;48.398;10.698;2023-02-22T02:44:02;9.30;45.60
20866;DHT22;10593;48.398;10.698;2023-02-22T02:49:20;9.20;45.50
20866;DHT22;10593;48.398;10.698;2023-02-22T02:51:53;9.20;45.50
20866;DHT22;10593;48.398;10.698;2023-02-22T02:54:22;9.20;45.60
20866;DHT22;10593;48.398;10.698;2023-02-22T02:56:49;9.20;45.70
20866;DHT22;10593;48.398;10.698;2023-02-22T02:59:24;9.10;45.60
20866;DHT22;10593;48.398;10.698;2023-02-22T03:08:39;9.10;45.70
20866;DHT22;10593;48.398;10.698;2023-02-22T03:11:20;9.10;45.80
20866;DHT22;10593;48.398;10.698;2023-02-22T03:14:15;9.10;45.80
20866;DHT22;10593;48.398;10.698;2023-02-22T03:19:31;9.10;45.70
20866;DHT22;10593;48.398;10.698;2023-02-22T03:22:09;9.00;45.70
20866;DHT22;10593;48.398;10.698;2023-02-22T03:25:03;9.00;45.70
20866;DHT22;10593;48.398;10.698;2023-02-22T03:27:54;9.00;45.70
20866;DHT22;10593;48.398;10.698;2023-02-22T03:30:35;9.00;45.70
20866;DHT22;10593;48.398;10.698;2023-02-22T03:33:09;9.00;45.70
20866;DHT22;10593;48.398;10.698;2023-02-22T03:35:53;9.00;45.70
20866;DHT22;10593;48.398;10.698;2023-02-22T03:38:26;8.90;45.60
20866;DHT22;10593;48.398;10.698;2023-02-22T03:40:58;8.90;45.60
20866;DHT22;10593;48.398;10.698;2023-02-22T03:43:40;8.90;45.60
20866;DHT22;10593;48.398;10.698;2023-02-22T03:46:10;8.90;45.70
20866;DHT22;10593;48.398;10.698;2023-02-22T03:51:26;8.90;45.70
20866;DHT22;10593;48.398;10.698;2023-02-22T03:53:52;8.90;45.80
20866;DHT22;10593;48.398;10.698;2023-02-22T03:56:26;8.80;45.70
20866;DHT22;10593;48.398;10.698;2023-02-22T03:59:02;8.80;45.80
20866;DHT22;10593;48.398;10.698;2023-02-22T04:01:30;8.80;45.80
20866;DHT22;10593;48.398;10.698;2023-02-22T04:03:56;8.80;45.80
20866;DHT22;10593;48.398;10.698;2023-02-22T04:06:22;8.80;45.80
20866;DHT22;10593;48.398;10.698;2023-02-22T04:08:47;8.80;45.90
20866;DHT22;10593;48.398;10.698;2023-02-22T04:11:13;8.80;45.90
20866;DHT22;10593;48.398;10.698;2023-02-22T04:13:39;8.70;45.90
20866;DHT22;10593;48.398;10.698;2023-02-22T04:16:04;8.70;45.90
20866;DHT22;10593;48.398;10.698;2023-02-22T04:18:30;8.80;46.00
20866;DHT22;10593;48.398;10.698;2023-02-22T04:20:56;8.70;45.90
20866;DHT22;10593;48.398;10.698;2023-02-22T04:23:21;8.70;45.90
20866;DHT22;10593;48.398;10.698;2023-02-22T04:25:47;8.70;46.00
20866;DHT22;10593;48.398;10.698;2023-02-22T04:28:13;8.70;46.00
20866;DHT22;10593;48.398;10.698;2023-02-22T04:30:38;8.70;46.00
20866;DHT22;10593;48.398;10.698;2023-02-22T04:33:04;8.70;46.10
20866;DHT22;10593;48.398;10.698;2023-02-22T04:35:30;8.60;46.10
20866;DHT22;10593;48.398;10.698;2023-02-22T04:37:55;8.60;46.10
20866;DHT22;10593;48.398;10.698;2023-02-22T04:40:22;8.60;46.20
20866;DHT22;10593;48.398;10.698;2023-02-22T04:42:48;8.60;46.20
20866;DHT22;10593;48.398;10.698;2023-02-22T04:45:14;8.60;46.20
20866;DHT22;10593;48.398;10.698;2023-02-22T04:47:39;8.60;46.30
20866;DHT22;10593;48.398;10.698;2023-02-22T04:50:06;8.60;46.30
20866;DHT22;10593;48.398;10.698;2023-02-22T04:52:35;8.60;46.30
20866;DHT22;10593;48.398;10.698;2023-02-22T04:55:00;8.60;46.30
20866;DHT22;10593;48.398;10.698;2023-02-22T04:57:26;8.50;46.20
20866;DHT22;10593;48.398;10.698;2023-02-22T04:59:52;8.50;46.20
20866;DHT22;10593;48.398;10.698;2023-02-22T05:02:18;8.50;46.20
20866;DHT22;10593;48.398;10.698;2023-02-22T05:04:44;8.50;46.10
20866;DHT22;10593;48.398;10.698;2023-02-22T05:07:10;8.50;46.10
20866;DHT22;10593;48.398;10.698;2023-02-22T05:09:36;8.50;46.10
20866;DHT22;10593;48.398;10.698;2023-02-22T05:12:02;8.50;46.10
20866;DHT22;10593;48.398;10.698;2023-02-22T05:14:28;8.50;46.10
20866;DHT22;10593;48.398;10.698;2023-02-22T05:16:57;8.50;46.10
20866;DHT22;10593;48.398;10.698;2023-02-22T05:19:23;8.40;45.90
20866;DHT22;10593;48.398;10.698;2023-02-22T05:21:49;8.40;45.90
20866;DHT22;10593;48.398;10.698;2023-02-22T05:24:15;8.40;45.90
20866;DHT22;10593;48.398;10.698;2023-02-22T05:26:44;8.40;45.90
20866;DHT22;10593;48.398;10.698;2023-02-22T05:29:11;8.40;46.00
20866;DHT22;10593;48.398;10.698;2023-02-22T05:31:37;8.40;46.00
20866;DHT22;10593;48.398;10.698;2023-02-22T05:34:03;8.30;45.90
20866;DHT22;10593;48.398;10.698;2023-02-22T05:36:29;8.30;46.00
20866;DHT22;10593;48.398;10.698;2023-02-22T05:38:55;8.30;45.90
20866;DHT22;10593;48.398;10.698;2023-02-22T05:41:21;8.30;46.00
20866;DHT22;10593;48.398;10.698;2023-02-22T05:43:47;8.30;46.00
20866;DHT22;10593;48.398;10.698;2023-02-22T05:46:13;8.30;46.00
20866;DHT22;10593;48.398;10.698;2023-02-22T05:48:39;8.30;46.00
20866;DHT22;10593;48.398;10.698;2023-02-22T05:51:06;8.20;45.90
20866;DHT22;10593;48.398;10.698;2023-02-22T05:53:32;8.20;45.90
20866;DHT22;10593;48.398;10.698;2023-02-22T05:55:57;8.20;45.90
20866;DHT22;10593;48.398;10.698;2023-02-22T05:58:23;8.20;45.90
20866;DHT22;10593;48.398;10.698;2023-02-22T06:00:49;8.20;45.90
20866;DHT22;10593;48.398;10.698;2023-02-22T06:03:15;8.20;46.00
20866;DHT22;10593;48.398;10.698;2023-02-22T06:05:40;8.20;46.00
20866;DHT22;10593;48.398;10.698;2023-02-22T06:08:07;8.20;46.10
20866;DHT22;10593;48.398;10.698;2023-02-22T06:10:33;8.10;46.10
20866;DHT22;10593;48.398;10.698;2023-02-22T06:13:00;8.10;46.10
20866;DHT22;10593;48.398;10.698;2023-02-22T06:15:27;8.10;46.10
20866;DHT22;10593;48.398;10.698;2023-02-22T06:17:54;8.10;46.10
20866;DHT22;10593;48.398;10.698;2023-02-22T06:20:22;8.10;46.10
20866;DHT22;10593;48.398;10.698;2023-02-22T06:22:50;8.10;46.10
20866;DHT22;10593;48.398;10.698;2023-02-22T06:25:20;8.10;46.10
20866;DHT22;10593;48.398;10.698;2023-02-22T06:27:50;8.10;46.10
20866;DHT22;10593;48.398;10.698;2023-02-22T06:32:47;8.00;46.00
20866;DHT22;10593;48.398;10.698;2023-02-22T06:35:14;8.00;46.00
20866;DHT22;10593;48.398;10.698;2023-02-22T06:37:40;8.00;46.10
20866;DHT22;10593;48.398;10.698;2023-02-22T06:40:06;8.00;46.10
20866;DHT22;10593;48.398;10.698;2023-02-22T06:42:32;8.00;46.10
20866;DHT22;10593;48.398;10.698;2023-02-22T06:44:58;8.00;46.20
20866;DHT22;10593;48.398;10.698;2023-02-22T06:47:24;8.00;46.30
20866;DHT22;10593;48.398;10.698;2023-02-22T06:49:53;8.00;46.40
20866;DHT22;10593;48.398;10.698;2023-02-22T06:52:20;8.00;46.40
20866;DHT22;10593;48.398;10.698;2023-02-22T06:54:47;7.90;46.40
20866;DHT22;10593;48.398;10.698;2023-02-22T06:57:13;7.90;46.50
20866;DHT22;10593;48.398;10.698;2023-02-22T06:59:39;7.90;46.60
20866;DHT22;10593;48.398;10.698;2023-02-22T07:02:05;7.90;46.70
20866;DHT22;10593;48.398;10.698;2023-02-22T07:04:31;7.90;46.80
20866;DHT22;10593;48.398;10.698;2023-02-22T07:06:57;7.90;46.80
20866;DHT22;10593;48.398;10.698;2023-02-22T07:09:22;7.90;46.90
20866;DHT22;10593;48.398;10.698;2023-02-22T07:11:48;7.90;46.90
20866;DHT22;10593;48.398;10.698;2023-02-22T07:14:17;7.90;47.00
20866;DHT22;10593;48.398;10.698;2023-02-22T07:16:43;7.90;47.10
20866;DHT22;10593;48.398;10.698;2023-02-22T07:19:08;7.90;47.10
20866;DHT22;10593;48.398;10.698;2023-02-22T07:21:34;7.90;47.10
20866;DHT22;10593;48.398;10.698;2023-02-22T07:24:00;7.90;47.10
20866;DHT22;10593;48.398;10.698;2023-02-22T07:26:26;8.00;47.20
20866;DHT22;10593;48.398;10.698;2023-02-22T07:28:51;7.90;47.10
20866;DHT22;10593;48.398;10.698;2023-02-22T07:31:17;8.00;47.20
20866;DHT22;10593;48.398;10.698;2023-02-22T07:33:45;8.00;47.20
20866;DHT22;10593;48.398;10.698;2023-02-22T07:36:11;8.00;47.20
20866;DHT22;10593;48.398;10.698;2023-02-22T07:38:42;8.00;47.20
20866;DHT22;10593;48.398;10.698;2023-02-22T07:41:09;8.10;47.30
20866;DHT22;10593;48.398;10.698;2023-02-22T07:43:35;8.10;47.50
20866;DHT22;10593;48.398;10.698;2023-02-22T07:46:01;8.10;47.60
20866;DHT22;10593;48.398;10.698;2023-02-22T07:48:29;8.10;47.80
20866;DHT22;10593;48.398;10.698;2023-02-22T07:50:56;8.20;48.20
20866;DHT22;10593;48.398;10.698;2023-02-22T07:53:25;8.20;48.50
20866;DHT22;10593;48.398;10.698;2023-02-22T07:55:58;8.30;48.90
20866;DHT22;10593;48.398;10.698;2023-02-22T07:58:28;8.30;49.10
20866;DHT22;10593;48.398;10.698;2023-02-22T08:00:55;8.30;49.40
20866;DHT22;10593;48.398;10.698;2023-02-22T08:03:23;8.40;49.70
20866;DHT22;10593;48.398;10.698;2023-02-22T08:05:52;8.40;49.80
20866;DHT22;10593;48.398;10.698;2023-02-22T08:08:20;8.50;50.60
20866;DHT22;10593;48.398;10.698;2023-02-22T08:10:46;8.50;50.10
20866;DHT22;10593;48.398;10.698;2023-02-22T08:13:13;8.60;50.30
20866;DHT22;10593;48.398;10.698;2023-02-22T08:15:41;8.60;50.50
20866;DHT22;10593;48.398;10.698;2023-02-22T08:18:11;8.60;50.90
20866;DHT22;10593;48.398;10.698;2023-02-22T08:20:40;8.70;51.00
20866;DHT22;10593;48.398;10.698;2023-02-22T08:23:08;8.70;50.90
20866;DHT22;10593;48.398;10.698;2023-02-22T08:25:35;8.80;51.00
20866;DHT22;10593;48.398;10.698;2023-02-22T08:28:07;8.80;51.10
20866;DHT22;10593;48.398;10.698;2023-02-22T08:30:36;8.90;51.20
20866;DHT22;10593;48.398;10.698;2023-02-22T08:33:03;8.90;51.20
20866;DHT22;10593;48.398;10.698;2023-02-22T08:35:30;9.00;51.20
20866;DHT22;10593;48.398;10.698;2023-02-22T08:38:04;9.00;51.30
20866;DHT22;10593;48.398;10.698;2023-02-22T08:40:33;9.10;51.40
20866;DHT22;10593;48.398;10.698;2023-02-22T08:43:01;9.10;51.40
20866;DHT22;10593;48.398;10.698;2023-02-22T08:45:27;9.10;51.40
20866;DHT22;10593;48.398;10.698;2023-02-22T08:47:53;9.20;51.50
20866;DHT22;10593;48.398;10.698;2023-02-22T08:50:20;9.20;51.40
20866;DHT22;10593;48.398;10.698;2023-02-22T08:52:49;9.20;51.40
20866;DHT22;10593;48.398;10.698;2023-02-22T08:55:22;9.30;51.40
20866;DHT22;10593;48.398;10.698;2023-02-22T08:57:49;9.30;51.40
20866;DHT22;10593;48.398;10.698;2023-02-22T09:00:16;9.30;51.30
20866;DHT22;10593;48.398;10.698;2023-02-22T09:02:43;9.30;51.30
20866;DHT22;10593;48.398;10.698;2023-02-22T09:05:09;9.30;51.20
20866;DHT22;10593;48.398;10.698;2023-02-22T09:07:35;9.40;51.30
20866;DHT22;10593;48.398;10.698;2023-02-22T09:10:00;9.40;51.20
20866;DHT22;10593;48.398;10.698;2023-02-22T09:12:26;9.40;51.20
20866;DHT22;10593;48.398;10.698;2023-02-22T09:14:51;9.40;51.20
20866;DHT22;10593;48.398;10.698;2023-02-22T09:17:18;9.40;51.20
20866;DHT22;10593;48.398;10.698;2023-02-22T09:19:44;9.50;51.20
20866;DHT22;10593;48.398;10.698;2023-02-22T09:22:10;9.50;51.10
20866;DHT22;10593;48.398;10.698;2023-02-22T09:24:35;9.50;51.10
20866;DHT22;10593;48.398;10.698;2023-02-22T09:27:01;9.50;50.90
20866;DHT22;10593;48.398;10.698;2023-02-22T09:29:29;9.50;50.90
20866;DHT22;10593;48.398;10.698;2023-02-22T09:31:55;9.60;50.80
20866;DHT22;10593;48.398;10.698;2023-02-22T09:34:23;9.60;50.70
20866;DHT22;10593;48.398;10.698;2023-02-22T09:36:54;9.60;50.70
20866;DHT22;10593;48.398;10.698;2023-02-22T09:39:22;9.60;50.60
20866;DHT22;10593;48.398;10.698;2023-02-22T09:42:22;9.60;50.40
20866;DHT22;10593;48.398;10.698;2023-02-22T09:45:04;9.70;50.30
20866;DHT22;10593;48.398;10.698;2023-02-22T09:47:58;9.70;50.20
20866;DHT22;10593;48.398;10.698;2023-02-22T09:50:38;9.70;49.80
20866;DHT22;10593;48.398;10.698;2023-02-22T09:53:25;9.80;49.80
20866;DHT22;10593;48.398;10.698;2023-02-22T09:56:03;9.80;49.70
20866;DHT22;10593;48.398;10.698;2023-02-22T10:03:48;9.90;49.60
20866;DHT22;10593;48.398;10.698;2023-02-22T10:06:21;9.90;49.70
20866;DHT22;10593;48.398;10.698;2023-02-22T10:08:51;9.90;49.70
20866;DHT22;10593;48.398;10.698;2023-02-22T10:23:40;10.00;49.20
20866;DHT22;10593;48.398;10.698;2023-02-22T10:26:23;10.10;49.30
20866;DHT22;10593;48.398;10.698;2023-02-22T10:32:05;10.20;49.60
20866;DHT22;10593;48.398;10.698;2023-02-22T10:34:47;10.20;49.60
20866;DHT22;10593;48.398;10.698;2023-02-22T10:37:30;10.20;49.70
20866;DHT22;10593;48.398;10.698;2023-02-22T10:40:11;10.20;49.90
20866;DHT22;10593;48.398;10.698;2023-02-22T10:42:42;10.30;50.00
20866;DHT22;10593;48.398;10.698;2023-02-22T10:45:26;10.30;50.00
20866;DHT22;10593;48.398;10.698;2023-02-22T10:47:58;10.30;50.20
20866;DHT22;10593;48.398;10.698;2023-02-22T10:50:30;10.30;50.30
20866;DHT22;10593;48.398;10.698;2023-02-22T10:52:56;10.40;50.50
20866;DHT22;10593;48.398;10.698;2023-02-22T10:55:22;10.40;50.40
20866;DHT22;10593;48.398;10.698;2023-02-22T10:57:50;10.40;50.40
20866;DHT22;10593;48.398;10.698;2023-02-22T11:00:34;10.50;50.40
20866;DHT22;10593;48.398;10.698;2023-02-22T11:03:13;10.50;50.40
20866;DHT22;10593;48.398;10.698;2023-02-22T11:05:42;10.60;50.50
20866;DHT22;10593;48.398;10.698;2023-02-22T11:10:47;10.60;50.30
20866;DHT22;10593;48.398;10.698;2023-02-22T11:13:31;10.70;50.40
20866;DHT22;10593;48.398;10.698;2023-02-22T11:16:19;10.70;50.50
20866;DHT22;10593;48.398;10.698;2023-02-22T11:18:49;10.80;50.40
20866;DHT22;10593;48.398;10.698;2023-02-22T11:21:23;10.90;50.60
20866;DHT22;10593;48.398;10.698;2023-02-22T11:23:49;10.90;50.60
20866;DHT22;10593;48.398;10.698;2023-02-22T11:26:26;11.00;50.80
20866;DHT22;10593;48.398;10.698;2023-02-22T11:28:52;11.10;51.00
20866;DHT22;10593;48.398;10.698;2023-02-22T11:31:23;11.20;50.80
20866;DHT22;10593;48.398;10.698;2023-02-22T11:33:57;11.20;50.50
20866;DHT22;10593;48.398;10.698;2023-02-22T11:36:39;11.30;50.70
20866;DHT22;10593;48.398;10.698;2023-02-22T11:39:26;11.40;50.80
20866;DHT22;10593;48.398;10.698;2023-02-22T11:41:57;11.40;50.50
20866;DHT22;10593;48.398;10.698;2023-02-22T11:44:31;11.50;50.50
20866;DHT22;10593;48.398;10.698;2023-02-22T11:47:00;11.60;50.30
20866;DHT22;10593;48.398;10.698;2023-02-22T11:49:39;11.60;50.00
20866;DHT22;10593;48.398;10.698;2023-02-22T11:52:23;11.70;49.70
20866;DHT22;10593;48.398;10.698;2023-02-22T11:55:16;11.80;49.40
20866;DHT22;10593;48.398;10.698;2023-02-22T12:07:29;12.00;48.80
20866;DHT22;10593;48.398;10.698;2023-02-22T12:19:31;12.30;48.50
20866;DHT22;10593;48.398;10.698;2023-02-22T12:22:26;12.30;48.10
20866;DHT22;10593;48.398;10.698;2023-02-22T12:27:52;12.40;47.80
20866;DHT22;10593;48.398;10.698;2023-02-22T12:30:29;12.40;47.90
20866;DHT22;10593;48.398;10.698;2023-02-22T12:33:02;12.40;47.80
20866;DHT22;10593;48.398;10.698;2023-02-22T12:35:36;12.40;47.90
20866;DHT22;10593;48.398;10.698;2023-02-22T12:44:21;12.50;47.50
20866;DHT22;10593;48.398;10.698;2023-02-22T12:46:55;12.50;47.70
20866;DHT22;10593;48.398;10.698;2023-02-22T12:55:50;12.60;48.30
20866;DHT22;10593;48.398;10.698;2023-02-22T12:58:34;12.60;48.30
20866;DHT22;10593;48.398;10.698;2023-02-22T13:01:16;12.60;48.60
20866;DHT22;10593;48.398;10.698;2023-02-22T13:03:46;12.60;48.80
20866;DHT22;10593;48.398;10.698;2023-02-22T13:14:38;12.70;49.00
20866;DHT22;10593;48.398;10.698;2023-02-22T13:17:10;12.70;48.90
20866;DHT22;10593;48.398;10.698;2023-02-22T13:20:09;12.70;48.80
20866;DHT22;10593;48.398;10.698;2023-02-22T13:26:20;12.80;48.70
20866;DHT22;10593;48.398;10.698;2023-02-22T13:29:26;12.80;48.70
20866;DHT22;10593;48.398;10.698;2023-02-22T13:34:57;12.80;48.40
20866;DHT22;10593;48.398;10.698;2023-02-22T13:37:42;12.80;48.30
20866;DHT22;10593;48.398;10.698;2023-02-22T13:40:24;12.80;48.20
20866;DHT22;10593;48.398;10.698;2023-02-22T13:43:33;12.90;48.40
20866;DHT22;10593;48.398;10.698;2023-02-22T13:46:41;12.90;48.10
20866;DHT22;10593;48.398;10.698;2023-02-22T13:52:46;12.90;48.00
20866;DHT22;10593;48.398;10.698;2023-02-22T13:55:18;12.90;48.10
20866;DHT22;10593;48.398;10.698;2023-02-22T13:57:48;12.90;48.10
20866;DHT22;10593;48.398;10.698;2023-02-22T14:13:14;13.10;48.00
20866;DHT22;10593;48.398;10.698;2023-02-22T14:18:30;13.10;47.70
20866;DHT22;10593;48.398;10.698;2023-02-22T14:21:21;13.20;47.90
20866;DHT22;10593;48.398;10.698;2023-02-22T14:23:51;13.20;47.90
20866;DHT22;10593;48.398;10.698;2023-02-22T14:26:31;13.20;48.50
20866;DHT22;10593;48.398;10.698;2023-02-22T14:29:00;13.20;47.90
20866;DHT22;10593;48.398;10.698;2023-02-22T14:34:37;13.20;47.60
20866;DHT22;10593;48.398;10.698;2023-02-22T14:40:03;13.20;47.40
20866;DHT22;10593;48.398;10.698;2023-02-22T14:43:01;13.20;47.10
20866;DHT22;10593;48.398;10.698;2023-02-22T14:45:32;13.20;47.10
20866;DHT22;10593;48.398;10.698;2023-02-22T14:48:32;13.30;47.30
20866;DHT22;10593;48.398;10.698;2023-02-22T14:51:22;13.30;47.20
20866;DHT22;10593;48.398;10.698;2023-02-22T14:54:01;13.30;47.20
20866;DHT22;10593;48.398;10.698;2023-02-22T14:56:39;13.30;47.20
20866;DHT22;10593;48.398;10.698;2023-02-22T14:59:22;13.30;47.20
20866;DHT22;10593;48.398;10.698;2023-02-22T15:02:06;13.40;47.30
20866;DHT22;10593;48.398;10.698;2023-02-22T15:04:37;13.30;47.30
20866;DHT22;10593;48.398;10.698;2023-02-22T15:07:25;13.40;47.30
20866;DHT22;10593;48.398;10.698;2023-02-22T15:10:21;13.40;47.10
20866;DHT22;10593;48.398;10.698;2023-02-22T15:12:55;13.40;47.00
20866;DHT22;10593;48.398;10.698;2023-02-22T15:15:42;13.40;47.20
20866;DHT22;10593;48.398;10.698;2023-02-22T15:18:26;13.40;47.10
20866;DHT22;10593;48.398;10.698;2023-02-22T15:20:57;13.40;47.10
20866;DHT22;10593;48.398;10.698;2023-02-22T15:23:29;13.40;47.20
20866;DHT22;10593;48.398;10.698;2023-02-22T15:26:06;13.40;47.20
20866;DHT22;10593;48.398;10.698;2023-02-22T15:28:33;13.40;47.20
20866;DHT22;10593;48.398;10.698;2023-02-22T15:31:17;13.40;47.00
20866;DHT22;10593;48.398;10.698;2023-02-22T15:33:48;13.40;46.80
20866;DHT22;10593;48.398;10.698;2023-02-22T15:36:18;13.40;46.80
20866;DHT22;10593;48.398;10.698;2023-02-22T15:38:50;13.50;46.90
20866;DHT22;10593;48.398;10.698;2023-02-22T15:41:35;13.50;46.90
20866;DHT22;10593;48.398;10.698;2023-02-22T15:44:06;13.50;46.80
20866;DHT22;10593;48.398;10.698;2023-02-22T15:46:37;13.50;46.80
20866;DHT22;10593;48.398;10.698;2023-02-22T15:51:36;13.50;46.90
20866;DHT22;10593;48.398;10.698;2023-02-22T15:54:05;13.50;47.00
20866;DHT22;10593;48.398;10.698;2023-02-22T15:56:34;13.50;47.00
20866;DHT22;10593;48.398;10.698;2023-02-22T15:59:27;13.50;46.90
20866;DHT22;10593;48.398;10.698;2023-02-22T16:01:58;13.50;46.90
20866;DHT22;10593;48.398;10.698;2023-02-22T16:04:29;13.50;46.90
20866;DHT22;10593;48.398;10.698;2023-02-22T16:07:05;13.50;46.80
20866;DHT22;10593;48.398;10.698;2023-02-22T16:09:46;13.50;46.80
20866;DHT22;10593;48.398;10.698;2023-02-22T16:14:46;13.50;46.90
20866;DHT22;10593;48.398;10.698;2023-02-22T16:17:38;13.50;47.00
20866;DHT22;10593;48.398;10.698;2023-02-22T16:22:45;13.50;47.40
20866;DHT22;10593;48.398;10.698;2023-02-22T16:30:24;13.50;48.30
20866;DHT22;10593;48.398;10.698;2023-02-22T16:32:55;13.50;48.40
20866;DHT22;10593;48.398;10.698;2023-02-22T16:35:23;13.50;48.60
20866;DHT22;10593;48.398;10.698;2023-02-22T16:38:07;13.50;48.80
20866;DHT22;10593;48.398;10.698;2023-02-22T16:40:51;13.50;48.60
20866;DHT22;10593;48.398;10.698;2023-02-22T16:43:22;13.40;48.40
20866;DHT22;10593;48.398;10.698;2023-02-22T16:45:50;13.50;48.30
20866;DHT22;10593;48.398;10.698;2023-02-22T16:48:25;13.40;48.20
20866;DHT22;10593;48.398;10.698;2023-02-22T16:50:55;13.40;48.10
20866;DHT22;10593;48.398;10.698;2023-02-22T16:53:29;13.40;48.00
20866;DHT22;10593;48.398;10.698;2023-02-22T16:56:01;13.40;48.00
20866;DHT22;10593;48.398;10.698;2023-02-22T16:58:33;13.40;48.00
20866;DHT22;10593;48.398;10.698;2023-02-22T17:01:01;13.40;48.20
20866;DHT22;10593;48.398;10.698;2023-02-22T17:03:26;13.30;48.10
20866;DHT22;10593;48.398;10.698;2023-02-22T17:05:52;13.30;48.20
20866;DHT22;10593;48.398;10.698;2023-02-22T17:08:18;13.30;48.30
20866;DHT22;10593;48.398;10.698;2023-02-22T17:10:43;13.30;48.30
20866;DHT22;10593;48.398;10.698;2023-02-22T17:13:11;13.20;48.30
20866;DHT22;10593;48.398;10.698;2023-02-22T17:15:37;13.30;48.30
20866;DHT22;10593;48.398;10.698;2023-02-22T17:18:10;13.20;48.40
20866;DHT22;10593;48.398;10.698;2023-02-22T17:20:41;13.20;48.60
20866;DHT22;10593;48.398;10.698;2023-02-22T17:23:09;13.20;48.50
20866;DHT22;10593;48.398;10.698;2023-02-22T17:25:54;13.10;48.40
20866;DHT22;10593;48.398;10.698;2023-02-22T17:28:24;13.20;48.60
20866;DHT22;10593;48.398;10.698;2023-02-22T17:30:51;13.10;48.40
20866;DHT22;10593;48.398;10.698;2023-02-22T17:33:21;13.10;48.40
20866;DHT22;10593;48.398;10.698;2023-02-22T17:35:52;13.10;48.40
20866;DHT22;10593;48.398;10.698;2023-02-22T17:38:19;13.00;48.30
20866;DHT22;10593;48.398;10.698;2023-02-22T17:40:47;13.00;48.40
20866;DHT22;10593;48.398;10.698;2023-02-22T17:43:14;13.00;48.40
20866;DHT22;10593;48.398;10.698;2023-02-22T17:45:41;12.90;48.30
20866;DHT22;10593;48.398;10.698;2023-02-22T17:48:07;12.90;48.40
20866;DHT22;10593;48.398;10.698;2023-02-22T17:50:39;12.90;48.40
20866;DHT22;10593;48.398;10.698;2023-02-22T17:53:06;12.90;48.50
20866;DHT22;10593;48.398;10.698;2023-02-22T17:55:36;12.80;48.40
20866;DHT22;10593;48.398;10.698;2023-02-22T17:58:04;12.80;48.40
20866;DHT22;10593;48.398;10.698;2023-02-22T18:00:33;12.80;48.50
20866;DHT22;10593;48.398;10.698;2023-02-22T18:03:10;12.80;48.50
20866;DHT22;10593;48.398;10.698;2023-02-22T18:05:41;12.70;48.40
20866;DHT22;10593;48.398;10.698;2023-02-22T18:08:09;12.70;48.50
20866;DHT22;10593;48.398;10.698;2023-02-22T18:10:35;12.70;48.50
20866;DHT22;10593;48.398;10.698;2023-02-22T18:13:01;12.70;48.60
20866;DHT22;10593;48.398;10.698;2023-02-22T18:15:29;12.70;48.60
20866;DHT22;10593;48.398;10.698;2023-02-22T18:17:55;12.60;48.60
20866;DHT22;10593;48.398;10.698;2023-02-22T18:20:21;12.60;48.70
20866;DHT22;10593;48.398;10.698;2023-02-22T18:22:56;12.60;48.70
20866;DHT22;10593;48.398;10.698;2023-02-22T18:25:24;12.60;48.70
20866;DHT22;10593;48.398;10.698;2023-02-22T18:27:51;12.60;48.80
20866;DHT22;10593;48.398;10.698;2023-02-22T18:30:19;12.50;48.80
20866;DHT22;10593;48.398;10.698;2023-02-22T18:32:45;12.50;48.80